createdAt,value
2023-11-19T00:01:35.170Z,100967.97
2023-11-19T00:04:01.819Z,100970.50
2023-11-19T00:06:29.012Z,100965.28
2023-11-19T00:08:55.726Z,100972.56
2023-11-19T00:11:22.473Z,100968.94
2023-11-19T00:13:49.120Z,100952.97
2023-11-19T00:16:15.705Z,100952.09
2023-11-19T00:18:42.256Z,100966.03
2023-11-19T00:21:11.821Z,100953.19
2023-11-19T00:23:38.943Z,100955.16
2023-11-19T00:26:07.336Z,100964.84
2023-11-19T00:28:35.266Z,100963.75
2023-11-19T00:31:02.010Z,100951.53
2023-11-19T00:33:28.728Z,100953.09
2023-11-19T00:35:55.332Z,100943.78
2023-11-19T00:38:22.186Z,100933.63
2023-11-19T00:40:48.664Z,100943.91
2023-11-19T00:43:15.276Z,100929.22
2023-11-19T00:45:41.940Z,100937.59
2023-11-19T00:48:08.579Z,100940.16
2023-11-19T00:50:37.975Z,100934.81
2023-11-19T00:53:05.239Z,100919.47
2023-11-19T00:55:31.798Z,100909.22
2023-11-19T00:57:58.546Z,100915.69
2023-11-19T01:00:28.008Z,100915.47
2023-11-19T01:02:59.461Z,100922.84
2023-11-19T01:05:26.045Z,100925.25
2023-11-19T01:07:55.279Z,100925.41
2023-11-19T01:10:31.247Z,100921.03
2023-11-19T01:12:58.702Z,100920.91
2023-11-19T01:15:25.294Z,100932.41
2023-11-19T01:17:53.862Z,100927.69
2023-11-19T01:20:21.732Z,100923.91
2023-11-19T01:22:49.892Z,100910.19
2023-11-19T01:25:16.743Z,100897.03
2023-11-19T01:27:43.299Z,100909.28
2023-11-19T01:30:14.084Z,100906.50
2023-11-19T01:32:41.792Z,100899.72
2023-11-19T01:35:12.015Z,100897.34
2023-11-19T01:37:38.736Z,100905.19
2023-11-19T01:40:06.892Z,100897.22
2023-11-19T01:42:40.242Z,100904.81
2023-11-19T01:45:08.679Z,100905.78
2023-11-19T01:47:36.510Z,100898.38
2023-11-19T01:50:07.394Z,100909.63
2023-11-19T01:52:39.736Z,100913.00
2023-11-19T01:55:09.773Z,100907.94
2023-11-19T01:57:38.798Z,100909.03
2023-11-19T02:00:07.417Z,100907.09
2023-11-19T02:02:34.469Z,100910.34
2023-11-19T02:05:01.294Z,100898.81
2023-11-19T02:07:28.096Z,100898.25
2023-11-19T02:09:54.654Z,100898.63
2023-11-19T02:12:21.757Z,100895.38
2023-11-19T02:14:48.463Z,100888.84
2023-11-19T02:17:35.455Z,100888.41
2023-11-19T02:20:02.072Z,100895.19
2023-11-19T02:22:28.645Z,100900.66
2023-11-19T02:25:02.037Z,100906.88
2023-11-19T02:27:48.068Z,100915.19
2023-11-19T02:30:15.718Z,100914.59
2023-11-19T02:32:43.476Z,100912.91
2023-11-19T02:35:10.556Z,100920.88
2023-11-19T02:37:37.203Z,100915.59
2023-11-19T02:40:05.293Z,100916.56
2023-11-19T02:42:32.425Z,100905.66
2023-11-19T02:44:58.923Z,100914.75
2023-11-19T02:47:25.548Z,100900.25
2023-11-19T02:49:52.548Z,100896.50
2023-11-19T02:52:19.950Z,100890.34
2023-11-19T02:54:46.499Z,100903.16
2023-11-19T02:57:22.326Z,100901.47
2023-11-19T02:59:49.802Z,100906.44
2023-11-19T03:02:18.277Z,100910.53
2023-11-19T03:04:45.132Z,100905.69
2023-11-19T03:07:11.811Z,100907.75
2023-11-19T03:09:41.470Z,100904.75
2023-11-19T03:12:08.442Z,100900.88
2023-11-19T03:14:37.770Z,100901.25
2023-11-19T03:17:06.398Z,100901.38
2023-11-19T03:19:33.108Z,100912.22
2023-11-19T03:22:00.777Z,100909.31
2023-11-19T03:24:27.579Z,100902.59
2023-11-19T03:26:54.360Z,100919.75
2023-11-19T03:29:20.967Z,100907.66
2023-11-19T03:31:47.466Z,100903.78
2023-11-19T03:34:14.161Z,100902.34
2023-11-19T03:36:41.261Z,100896.75
2023-11-19T03:39:08.019Z,100896.50
2023-11-19T03:44:04.109Z,100888.81
2023-11-19T03:46:31.425Z,100883.97
2023-11-19T03:48:58.088Z,100875.72
2023-11-19T03:51:24.560Z,100899.88
2023-11-19T03:53:51.108Z,100895.28
2023-11-19T03:56:17.978Z,100902.50
2023-11-19T03:58:44.570Z,100903.59
2023-11-19T04:01:14.782Z,100907.19
2023-11-19T04:03:50.965Z,100903.34
2023-11-19T04:06:18.031Z,100914.44
2023-11-19T04:08:45.028Z,100908.03
2023-11-19T04:11:11.770Z,100915.25
2023-11-19T04:13:38.291Z,100920.09
2023-11-19T04:16:05.751Z,100914.78
2023-11-19T04:18:33.167Z,100921.91
2023-11-19T04:20:59.662Z,100925.88
2023-11-19T04:23:26.450Z,100923.00
2023-11-19T04:25:55.658Z,100920.34
2023-11-19T04:28:22.195Z,100928.44
2023-11-19T04:30:48.738Z,100924.78
2023-11-19T04:33:16.019Z,100918.66
2023-11-19T04:35:42.985Z,100927.13
2023-11-19T04:38:09.737Z,100923.59
2023-11-19T04:40:36.314Z,100912.75
2023-11-19T04:43:02.875Z,100929.97
2023-11-19T04:45:29.398Z,100921.03
2023-11-19T04:47:56.013Z,100934.03
2023-11-19T04:50:22.741Z,100937.03
2023-11-19T04:52:49.336Z,100928.22
2023-11-19T04:55:16.019Z,100917.09
2023-11-19T04:57:42.740Z,100921.00
2023-11-19T05:02:41.709Z,100917.88
2023-11-19T05:05:08.749Z,100919.53
2023-11-19T05:07:35.859Z,100925.75
2023-11-19T05:10:02.495Z,100932.16
2023-11-19T05:12:29.026Z,100936.84
2023-11-19T05:14:55.727Z,100939.63
2023-11-19T05:17:22.390Z,100943.47
2023-11-19T05:19:49.482Z,100939.97
2023-11-19T05:22:16.207Z,100933.69
2023-11-19T05:24:42.746Z,100930.97
2023-11-19T05:27:12.312Z,100927.34
2023-11-19T05:29:40.320Z,100926.63
2023-11-19T05:32:08.163Z,100932.16
2023-11-19T05:34:34.832Z,100926.63
2023-11-19T05:37:01.414Z,100927.59
2023-11-19T05:39:29.086Z,100936.19
2023-11-19T05:41:55.601Z,100925.03
2023-11-19T05:44:22.454Z,100929.72
2023-11-19T05:46:49.249Z,100932.38
2023-11-19T05:49:15.863Z,100927.59
2023-11-19T05:51:42.441Z,100925.88
2023-11-19T05:54:11.020Z,100947.84
2023-11-19T05:56:37.783Z,100932.66
2023-11-19T05:59:08.349Z,100946.06
2023-11-19T06:01:39.336Z,100940.13
2023-11-19T06:04:06.129Z,100928.03
2023-11-19T06:06:32.765Z,100927.78
2023-11-19T06:08:59.299Z,100938.19
2023-11-19T06:11:39.217Z,100933.97
2023-11-19T06:14:06.829Z,100936.28
2023-11-19T06:16:33.480Z,100925.16
2023-11-19T06:19:00.494Z,100927.19
2023-11-19T06:21:27.110Z,100938.13
2023-11-19T06:23:54.507Z,100927.41
2023-11-19T06:26:22.174Z,100938.00
2023-11-19T06:28:48.845Z,100951.19
2023-11-19T06:31:17.269Z,100946.22
2023-11-19T06:33:44.336Z,100951.38
2023-11-19T06:36:11.091Z,100955.75
2023-11-19T06:38:37.671Z,100951.38
2023-11-19T06:41:08.600Z,100947.50
2023-11-19T06:46:07.077Z,100954.47
2023-11-19T06:48:33.962Z,100961.16
2023-11-19T06:51:01.515Z,100974.53
2023-11-19T06:53:29.082Z,100970.00
2023-11-19T06:55:56.119Z,100966.50
2023-11-19T06:58:22.671Z,100972.53
2023-11-19T07:00:50.831Z,100977.31
2023-11-19T07:03:17.544Z,100980.13
2023-11-19T07:05:44.934Z,100977.72
2023-11-19T07:08:12.264Z,100983.66
2023-11-19T07:10:39.791Z,100978.34
2023-11-19T07:13:07.083Z,100975.16
2023-11-19T07:15:33.904Z,100978.88
2023-11-19T07:18:03.116Z,100988.53
2023-11-19T07:20:30.203Z,100982.03
2023-11-19T07:22:58.611Z,100990.00
2023-11-19T07:25:25.602Z,100992.16
2023-11-19T07:27:53.627Z,101002.78
2023-11-19T07:30:20.301Z,100990.75
2023-11-19T07:32:46.928Z,100997.09
2023-11-19T07:35:13.487Z,101004.84
2023-11-19T07:37:40.422Z,100997.09
2023-11-19T07:40:07.751Z,101006.53
2023-11-19T07:42:34.296Z,101006.53
2023-11-19T07:45:00.901Z,100998.56
2023-11-19T07:47:27.630Z,101000.72
2023-11-19T07:49:54.633Z,101011.84
2023-11-19T07:52:22.553Z,101017.78
2023-11-19T07:54:49.470Z,100999.28
2023-11-19T07:57:16.734Z,101006.06
2023-11-19T07:59:43.345Z,100999.94
2023-11-19T08:02:10.329Z,100997.91
2023-11-19T08:04:37.005Z,101005.44
2023-11-19T08:07:03.801Z,100995.69
2023-11-19T08:09:30.523Z,100999.28
2023-11-19T08:11:59.590Z,101004.59
2023-11-19T08:14:26.401Z,101000.28
2023-11-19T08:16:52.929Z,100992.31
2023-11-19T08:19:19.444Z,100998.94
2023-11-19T08:21:45.961Z,100999.19
2023-11-19T08:24:12.582Z,100996.94
2023-11-19T08:26:39.226Z,101000.09
2023-11-19T08:29:05.850Z,100995.00
2023-11-19T08:31:32.518Z,100997.66
2023-11-19T08:33:59.173Z,101016.22
2023-11-19T08:36:25.741Z,101004.09
2023-11-19T08:38:52.969Z,101016.16
2023-11-19T08:41:20.639Z,101010.66
2023-11-19T08:43:47.373Z,101017.66
2023-11-19T08:46:14.221Z,101014.88
2023-11-19T08:48:41.168Z,101022.59
2023-11-19T08:51:07.975Z,101026.53
2023-11-19T08:53:34.806Z,101025.59
2023-11-19T08:56:03.096Z,101022.72
2023-11-19T08:58:30.296Z,101023.44
2023-11-19T09:00:57.240Z,101022.97
2023-11-19T09:03:24.237Z,101019.88
2023-11-19T09:05:50.977Z,101022.91
2023-11-19T09:08:17.509Z,101026.31
2023-11-19T09:10:44.107Z,101012.16
2023-11-19T09:13:10.614Z,101006.38
2023-11-19T09:15:37.077Z,101007.94
2023-11-19T09:18:04.237Z,100999.88
2023-11-19T09:20:38.618Z,101016.91
2023-11-19T09:23:07.019Z,101005.44
2023-11-19T09:25:45.423Z,101003.16
2023-11-19T09:28:12.624Z,101003.97
2023-11-19T09:30:39.208Z,101008.47
2023-11-19T09:33:06.760Z,101000.75
2023-11-19T09:35:33.502Z,101013.88
2023-11-19T09:38:01.776Z,101011.63
2023-11-19T09:40:29.755Z,101014.03
2023-11-19T09:42:57.026Z,101010.16
2023-11-19T09:45:29.039Z,101015.16
2023-11-19T09:47:58.443Z,101004.84
2023-11-19T09:50:25.225Z,100995.41
2023-11-19T09:52:52.510Z,101002.19
2023-11-19T09:55:19.376Z,100993.34
2023-11-19T09:57:46.652Z,100993.13
2023-11-19T10:00:16.545Z,100996.53
2023-11-19T10:02:47.371Z,100990.31
2023-11-19T10:05:15.985Z,100986.59
2023-11-19T10:07:43.820Z,100994.94
2023-11-19T10:10:12.000Z,100988.41
2023-11-19T10:12:38.746Z,100990.59
2023-11-19T10:15:08.194Z,100993.50
2023-11-19T10:17:35.416Z,100986.44
2023-11-19T10:20:02.444Z,100980.50
2023-11-19T10:22:29.365Z,100966.34
2023-11-19T10:24:56.874Z,100975.78
2023-11-19T10:27:26.123Z,100955.97
2023-11-19T10:29:52.659Z,100973.00
2023-11-19T10:32:25.528Z,100963.31
2023-11-19T10:35:05.891Z,100969.81
2023-11-19T10:37:33.770Z,100958.91
2023-11-19T10:40:00.859Z,100973.72
2023-11-19T10:42:27.529Z,100956.53
2023-11-19T10:44:54.059Z,100964.78
2023-11-19T10:47:37.771Z,100965.72
2023-11-19T10:50:05.840Z,100962.75
2023-11-19T10:52:32.769Z,100956.91
2023-11-19T10:55:02.564Z,100968.94
2023-11-19T10:57:34.263Z,100961.94
2023-11-19T11:00:04.290Z,100954.59
2023-11-19T11:02:35.626Z,100956.13
2023-11-19T11:05:04.093Z,100956.41
2023-11-19T11:07:39.525Z,100961.00
2023-11-19T11:10:10.487Z,100974.06
2023-11-19T11:12:39.274Z,100969.00
2023-11-19T11:15:08.199Z,100968.81
2023-11-19T11:17:35.645Z,100980.41
2023-11-19T11:20:04.003Z,100970.47
2023-11-19T11:22:44.003Z,100976.00
2023-11-19T11:25:24.813Z,100957.34
2023-11-19T11:28:21.668Z,100953.72
2023-11-19T11:31:27.349Z,100950.91
2023-11-19T11:34:07.405Z,100958.78
2023-11-19T11:36:56.699Z,100948.84
2023-11-19T11:39:24.324Z,100944.94
2023-11-19T11:42:23.200Z,100957.56
2023-11-19T11:45:11.446Z,100956.53
2023-11-19T11:47:58.187Z,100953.66
2023-11-19T11:50:26.181Z,100948.53
2023-11-19T11:52:59.019Z,100957.69
2023-11-19T11:55:25.471Z,100955.00
2023-11-19T11:57:52.248Z,100956.84
2023-11-19T12:00:29.247Z,100940.00
2023-11-19T12:02:57.588Z,100948.00
2023-11-19T12:05:24.605Z,100942.56
2023-11-19T12:08:08.253Z,100945.94
2023-11-19T12:10:44.448Z,100940.41
2023-11-19T12:13:13.120Z,100934.59
2023-11-19T12:15:58.172Z,100936.09
2023-11-19T12:18:29.658Z,100933.16
2023-11-19T12:20:57.214Z,100926.47
2023-11-19T12:23:24.888Z,100918.09
2023-11-19T12:25:51.500Z,100920.03
2023-11-19T12:28:18.674Z,100930.38
2023-11-19T12:30:46.184Z,100932.22
2023-11-19T12:33:13.715Z,100940.19
2023-11-19T12:35:45.132Z,100929.78
2023-11-19T12:38:25.982Z,100935.38
2023-11-19T12:41:06.210Z,100940.72
2023-11-19T12:43:32.864Z,100938.56
2023-11-19T12:45:59.480Z,100948.25
2023-11-19T12:48:26.063Z,100939.72
2023-11-19T12:50:59.461Z,100936.53
2023-11-19T12:53:27.343Z,100932.44
2023-11-19T12:55:56.795Z,100942.38
2023-11-19T12:58:34.213Z,100924.47
2023-11-19T13:01:02.194Z,100927.84
2023-11-19T13:03:33.835Z,100932.94
2023-11-19T13:06:12.340Z,100936.88
2023-11-19T13:08:41.068Z,100930.97
2023-11-19T13:11:10.926Z,100941.88
2023-11-19T13:13:57.388Z,100918.41
2023-11-19T13:16:24.558Z,100920.63
2023-11-19T13:18:51.243Z,100920.88
2023-11-19T13:21:17.810Z,100916.78
2023-11-19T13:23:44.953Z,100928.66
2023-11-19T13:26:12.571Z,100933.81
2023-11-19T13:28:39.317Z,100923.91
2023-11-19T13:31:06.610Z,100919.09
2023-11-19T13:33:33.590Z,100916.22
2023-11-19T13:36:02.974Z,100924.81
2023-11-19T13:38:29.574Z,100922.13
2023-11-19T13:40:56.227Z,100905.31
2023-11-19T13:43:25.117Z,100912.09
2023-11-19T13:45:52.035Z,100905.88
2023-11-19T13:48:18.672Z,100912.19
2023-11-19T13:50:45.272Z,100914.88
2023-11-19T13:53:11.884Z,100913.75
2023-11-19T13:55:38.473Z,100915.69
2023-11-19T13:58:05.014Z,100915.13
2023-11-19T14:00:31.768Z,100909.94
2023-11-19T14:02:58.470Z,100911.88
2023-11-19T14:07:56.881Z,100909.59
2023-11-19T14:10:24.065Z,100914.78
2023-11-19T14:12:53.651Z,100903.28
2023-11-19T14:15:20.762Z,100908.38
2023-11-19T14:17:47.335Z,100901.84
2023-11-19T14:20:14.294Z,100895.91
2023-11-19T14:22:41.556Z,100910.34
2023-11-19T14:25:10.889Z,100902.84
2023-11-19T14:27:41.589Z,100903.00
2023-11-19T14:30:10.102Z,100908.66
2023-11-19T14:32:37.628Z,100903.81
2023-11-19T14:35:08.208Z,100892.81
2023-11-19T14:37:35.205Z,100904.69
2023-11-19T14:40:05.184Z,100898.19
2023-11-19T14:42:31.818Z,100893.97
2023-11-19T14:44:58.608Z,100899.41
2023-11-19T14:47:25.373Z,100896.97
2023-11-19T14:49:52.559Z,100891.16
2023-11-19T14:52:19.137Z,100901.69
2023-11-19T14:54:45.882Z,100892.38
2023-11-19T14:57:12.530Z,100901.06
2023-11-19T14:59:39.198Z,100894.31
2023-11-19T15:02:06.842Z,100893.09
2023-11-19T15:04:33.832Z,100887.53
2023-11-19T15:07:01.353Z,100886.56
2023-11-19T15:09:28.095Z,100881.50
2023-11-19T15:11:55.116Z,100877.63
2023-11-19T15:14:21.777Z,100881.84
2023-11-19T15:16:50.619Z,100880.16
2023-11-19T15:19:17.075Z,100884.63
2023-11-19T15:21:43.551Z,100880.41
2023-11-19T15:24:11.806Z,100882.94
2023-11-19T15:26:38.993Z,100882.22
2023-11-19T15:29:06.603Z,100887.16
2023-11-19T15:31:33.214Z,100877.72
2023-11-19T15:33:59.754Z,100879.78
2023-11-19T15:36:26.414Z,100884.38
2023-11-19T15:38:53.691Z,100876.75
2023-11-19T15:41:20.799Z,100873.47
2023-11-19T15:43:47.555Z,100876.28
2023-11-19T15:46:14.144Z,100878.56
2023-11-19T15:48:40.736Z,100869.59
2023-11-19T15:51:07.361Z,100878.06
2023-11-19T15:53:34.022Z,100872.25
2023-11-19T15:56:01.199Z,100882.91
2023-11-19T15:58:27.775Z,100873.81
2023-11-19T16:00:54.401Z,100885.81
2023-11-19T16:03:21.308Z,100875.19
2023-11-19T16:05:54.618Z,100865.25
2023-11-19T16:08:27.837Z,100866.00
2023-11-19T16:10:54.723Z,100871.31
2023-11-19T16:13:22.930Z,100874.69
2023-11-19T16:15:49.785Z,100875.69
2023-11-19T16:18:16.389Z,100884.16
2023-11-19T16:20:43.796Z,100876.41
2023-11-19T16:23:10.519Z,100877.66
2023-11-19T16:25:39.224Z,100880.81
2023-11-19T16:28:08.676Z,100885.16
2023-11-19T16:30:35.549Z,100875.50
2023-11-19T16:33:02.153Z,100884.41
2023-11-19T16:35:28.778Z,100882.97
2023-11-19T16:37:55.518Z,100891.69
2023-11-19T16:40:23.255Z,100893.28
2023-11-19T16:42:51.732Z,100883.47
2023-11-19T16:45:18.417Z,100885.91
2023-11-19T16:47:46.268Z,100887.34
2023-11-19T16:50:13.384Z,100890.47
2023-11-19T16:52:40.385Z,100890.09
2023-11-19T16:55:12.544Z,100878.88
2023-11-19T16:57:42.632Z,100886.09
2023-11-19T17:00:11.812Z,100886.56
2023-11-19T17:05:12.886Z,100887.06
2023-11-19T17:07:40.382Z,100887.19
2023-11-19T17:10:08.264Z,100885.63
2023-11-19T17:12:35.477Z,100885.72
2023-11-19T17:15:05.490Z,100876.19
2023-11-19T17:17:38.676Z,100871.84
2023-11-19T17:20:07.723Z,100871.84
2023-11-19T17:22:38.518Z,100869.28
2023-11-19T17:25:11.226Z,100870.16
2023-11-19T17:27:39.865Z,100882.56
2023-11-19T17:30:07.595Z,100872.91
2023-11-19T17:32:34.700Z,100869.53
2023-11-19T17:35:01.389Z,100876.53
2023-11-19T17:37:28.040Z,100872.09
2023-11-19T17:39:54.597Z,100866.88
2023-11-19T17:42:21.198Z,100856.25
2023-11-19T17:44:47.781Z,100864.22
2023-11-19T17:47:15.358Z,100864.34
2023-11-19T17:49:41.923Z,100868.81
2023-11-19T17:52:10.938Z,100858.28
2023-11-19T17:54:38.825Z,100860.94
2023-11-19T17:57:06.173Z,100857.44
2023-11-19T17:59:32.751Z,100858.28
2023-11-19T18:02:00.628Z,100862.75
2023-11-19T18:04:27.817Z,100856.47
2023-11-19T18:06:54.871Z,100858.28
2023-11-19T18:09:21.643Z,100848.50
2023-11-19T18:11:49.060Z,100847.66
2023-11-19T18:14:15.775Z,100842.13
2023-11-19T18:16:44.899Z,100836.81
2023-11-19T18:19:11.966Z,100833.44
2023-11-19T18:21:39.620Z,100835.97
2023-11-19T18:24:07.801Z,100850.22
2023-11-19T18:29:05.349Z,100833.91
2023-11-19T18:31:33.823Z,100824.28
2023-11-19T18:34:00.966Z,100828.59
2023-11-19T18:36:28.907Z,100838.28
2023-11-19T18:38:55.775Z,100833.69
2023-11-19T18:41:22.477Z,100828.50
2023-11-19T18:43:49.186Z,100827.88
2023-11-19T18:46:15.767Z,100831.25
2023-11-19T18:48:42.318Z,100837.56
2023-11-19T18:51:08.935Z,100832.09
2023-11-19T18:53:35.561Z,100837.19
2023-11-19T18:56:02.148Z,100825.94
2023-11-19T18:58:28.634Z,100829.34
2023-11-19T19:00:55.654Z,100823.81
2023-11-19T19:03:27.602Z,100836.09
2023-11-19T19:05:54.301Z,100826.47
2023-11-19T19:08:22.785Z,100817.75
2023-11-19T19:10:49.472Z,100823.53
2023-11-19T19:13:15.997Z,100822.47
2023-11-19T19:15:42.520Z,100824.38
2023-11-19T19:18:09.131Z,100827.19
2023-11-19T19:20:35.761Z,100813.75
2023-11-19T19:23:02.383Z,100826.09
2023-11-19T19:25:29.386Z,100818.97
2023-11-19T19:28:22.704Z,100823.28
2023-11-19T19:30:46.006Z,100839.13
2023-11-19T19:33:13.155Z,100816.06
2023-11-19T19:35:40.242Z,100814.38
2023-11-19T19:38:07.555Z,100809.91
2023-11-19T19:40:34.084Z,100811.09
2023-11-19T19:43:00.651Z,100812.66
2023-11-19T19:45:27.250Z,100806.50
2023-11-19T19:47:55.568Z,100819.69
2023-11-19T19:50:22.413Z,100805.69
2023-11-19T19:52:49.003Z,100815.22
2023-11-19T19:55:19.228Z,100814.38
2023-11-19T19:57:46.062Z,100819.56
2023-11-19T20:00:16.131Z,100815.09
2023-11-19T20:02:44.879Z,100815.09
2023-11-19T20:05:15.927Z,100799.06
2023-11-19T20:07:43.517Z,100817.28
2023-11-19T20:10:13.883Z,100817.28
2023-11-19T20:12:41.052Z,100809.31
2023-11-19T20:15:09.567Z,100825.25
2023-11-19T20:17:36.423Z,100820.66
2023-11-19T20:20:04.569Z,100821.38
2023-11-19T20:22:32.269Z,100821.38
2023-11-19T20:24:58.998Z,100812.31
2023-11-19T20:27:25.709Z,100821.84
2023-11-19T20:29:52.238Z,100823.69
2023-11-19T20:32:18.825Z,100828.88
2023-11-19T20:34:45.442Z,100828.88
2023-11-19T20:37:13.191Z,100820.66
2023-11-19T20:39:40.437Z,100833.94
2023-11-19T20:42:06.970Z,100837.44
2023-11-19T20:44:33.648Z,100828.63
2023-11-19T20:47:05.128Z,100839.03
2023-11-19T20:49:31.975Z,100838.31
2023-11-19T20:51:58.548Z,100839.75
2023-11-19T20:56:54.525Z,100848.44
2023-11-19T20:59:21.085Z,100846.63
2023-11-19T21:01:47.665Z,100857.38
2023-11-19T21:04:14.286Z,100847.59
2023-11-19T21:09:11.323Z,100846.75
2023-11-19T21:11:38.467Z,100846.75
2023-11-19T21:14:05.308Z,100857.38
2023-11-19T21:16:31.959Z,100843.88
2023-11-19T21:18:58.675Z,100843.13
2023-11-19T21:21:25.346Z,100860.66
2023-11-19T21:23:51.907Z,100850.75
2023-11-19T21:26:18.574Z,100846.25
2023-11-19T21:28:45.097Z,100854.13
2023-11-19T21:31:11.957Z,100859.56
2023-11-19T21:33:38.590Z,100854.97
2023-11-19T21:36:06.602Z,100861.84
2023-11-19T21:38:33.099Z,100857.50
2023-11-19T21:41:01.352Z,100861.47
2023-11-19T21:43:27.931Z,100857.13
2023-11-19T21:45:55.489Z,100853.75
2023-11-19T21:48:22.734Z,100856.53
2023-11-19T21:50:49.405Z,100866.31
2023-11-19T21:53:16.986Z,100865.59
2023-11-19T21:55:46.698Z,100861.13
2023-11-19T21:58:13.564Z,100859.56
2023-11-19T22:00:40.292Z,100858.59
2023-11-19T22:03:07.226Z,100859.56
2023-11-19T22:05:33.768Z,100855.06
2023-11-19T22:10:30.905Z,100862.22
2023-11-19T22:12:58.328Z,100865.59
2023-11-19T22:15:24.906Z,100863.66
2023-11-19T22:17:54.254Z,100864.66
2023-11-19T22:22:52.339Z,100866.81
2023-11-19T22:25:20.295Z,100868.63
2023-11-19T22:27:46.910Z,100873.69
2023-11-19T22:30:14.512Z,100875.50
2023-11-19T22:32:41.679Z,100877.44
2023-11-19T22:35:09.167Z,100875.88
2023-11-19T22:37:35.945Z,100878.63
2023-11-19T22:40:02.989Z,100883.00
2023-11-19T22:42:30.028Z,100887.59
2023-11-19T22:44:56.849Z,100896.41
2023-11-19T22:47:23.559Z,100881.56
2023-11-19T22:49:50.162Z,100881.66
2023-11-19T22:52:16.786Z,100885.16
2023-11-19T22:54:43.991Z,100885.16
2023-11-19T22:57:10.649Z,100885.16
2023-11-19T22:59:37.176Z,100883.47
2023-11-19T23:02:03.996Z,100891.69
2023-11-19T23:04:30.592Z,100891.69
2023-11-19T23:06:57.185Z,100879.59
2023-11-19T23:09:23.726Z,100889.28
2023-11-19T23:11:50.438Z,100891.81
2023-11-19T23:14:17.037Z,100906.06
2023-11-19T23:16:43.668Z,100894.59
2023-11-19T23:19:10.539Z,100897.34
2023-11-19T23:21:41.181Z,100907.75
2023-11-19T23:24:08.390Z,100889.50
2023-11-19T23:26:35.097Z,100901.00
2023-11-19T23:29:09.516Z,100907.97
2023-11-19T23:31:40.167Z,100909.81
2023-11-19T23:34:06.924Z,100905.44
2023-11-19T23:36:33.656Z,100912.69
2023-11-19T23:39:00.380Z,100912.69
2023-11-19T23:41:28.997Z,100912.69
2023-11-19T23:43:56.628Z,100898.81
2023-11-19T23:46:25.093Z,100907.00
2023-11-19T23:51:22.644Z,100912.31
2023-11-19T23:53:49.241Z,100911.47
2023-11-19T23:56:15.810Z,100912.56
2023-11-19T23:58:42.296Z,100917.00
